createdAt,value
2017-06-27T00:00:03.697Z,19
2017-06-27T00:01:02.899Z,19
2017-06-27T00:02:02.541Z,19
2017-06-27T00:03:01.123Z,19
2017-06-27T00:04:00.323Z,19
2017-06-27T00:04:59.410Z,18.9
2017-06-27T00:05:59.126Z,18.8
2017-06-27T00:06:58.330Z,18.8
2017-06-27T00:07:57.526Z,18.8
2017-06-27T00:08:56.495Z,18.8
2017-06-27T00:09:56.076Z,18.8
2017-06-27T00:10:55.273Z,18.8
2017-06-27T00:11:54.740Z,18.8
2017-06-27T00:12:53.939Z,18.8
2017-06-27T00:13:53.149Z,18.8
2017-06-27T00:14:52.110Z,18.8
2017-06-27T00:15:51.344Z,18.8
2017-06-27T00:16:50.928Z,18.8
2017-06-27T00:17:50.263Z,18.8
2017-06-27T00:18:49.418Z,18.8
2017-06-27T00:19:48.496Z,18.8
2017-06-27T00:20:47.708Z,18.8
2017-06-27T00:21:47.299Z,18.7
2017-06-27T00:22:46.500Z,18.7
2017-06-27T00:23:45.942Z,18.7
2017-06-27T00:24:44.631Z,18.6
2017-06-27T00:25:44.333Z,18.6
2017-06-27T00:26:43.421Z,18.6
2017-06-27T00:27:42.626Z,18.6
2017-06-27T00:28:41.819Z,18.6
2017-06-27T00:29:41.139Z,18.6
2017-06-27T00:30:40.236Z,18.6
2017-06-27T00:31:39.825Z,18.6
2017-06-27T00:32:39.036Z,18.6
2017-06-27T00:33:38.120Z,18.6
2017-06-27T00:34:37.187Z,18.6
2017-06-27T00:35:37.145Z,18.6
2017-06-27T00:36:35.832Z,18.6
2017-06-27T00:37:35.030Z,18.6
2017-06-27T00:38:34.788Z,18.6
2017-06-27T00:39:33.489Z,18.4
2017-06-27T00:40:32.698Z,18.4
2017-06-27T00:41:32.661Z,18.1
2017-06-27T00:42:31.246Z,18.1
2017-06-27T00:43:30.329Z,18.1
2017-06-27T00:44:30.032Z,18.1
2017-06-27T00:45:29.260Z,18
2017-06-27T00:46:28.463Z,18
2017-06-27T00:47:27.919Z,18
2017-06-27T00:48:26.633Z,17.9
2017-06-27T00:49:26.219Z,17.8
2017-06-27T00:50:25.672Z,17.8
2017-06-27T00:52:24.141Z,17.8
2017-06-27T00:53:23.601Z,17.8
2017-06-27T00:54:22.293Z,17.8
2017-06-27T00:55:21.484Z,17.7
2017-06-27T00:56:20.992Z,17.7
2017-06-27T00:57:20.196Z,17.7
2017-06-27T00:58:19.852Z,17.8
2017-06-27T00:59:18.797Z,17.8
2017-06-27T01:00:17.994Z,17.8
2017-06-27T01:01:17.075Z,17.8
2017-06-27T01:02:16.167Z,17.8
2017-06-27T01:04:14.761Z,17.8
2017-06-27T01:05:14.100Z,17.8
2017-06-27T01:06:13.334Z,17.9
2017-06-27T01:07:12.522Z,18
2017-06-27T01:08:11.602Z,18
2017-06-27T01:09:11.182Z,18
2017-06-27T01:10:10.393Z,18
2017-06-27T01:11:10.412Z,18
2017-06-27T01:12:09.679Z,18.1
2017-06-27T01:13:08.379Z,18.1
2017-06-27T01:14:07.580Z,18.1
2017-06-27T01:15:06.771Z,18.1
2017-06-27T01:16:05.853Z,18.1
2017-06-27T01:16:36.623Z,18.1
2017-06-27T01:17:06.626Z,18.1
2017-06-27T01:17:37.127Z,18.1
2017-06-27T01:18:07.575Z,18.1
2017-06-27T01:18:37.956Z,18.1
2017-06-27T01:20:02.705Z,18.1
2017-06-27T01:21:02.165Z,18.1
2017-06-27T01:22:01.622Z,18.1
2017-06-27T01:23:00.706Z,18.1
2017-06-27T01:23:59.906Z,18.1
2017-06-27T01:24:59.673Z,18.1
2017-06-27T01:25:58.367Z,18.1
2017-06-27T01:26:57.574Z,18.1
2017-06-27T01:27:56.788Z,18.1
2017-06-27T01:28:55.751Z,18.1
2017-06-27T01:29:55.463Z,18.1
2017-06-27T01:31:54.046Z,18.1
2017-06-27T01:32:53.256Z,18.1
2017-06-27T01:33:52.711Z,18.1
2017-06-27T01:35:50.788Z,18
2017-06-27T01:36:50.014Z,18
2017-06-27T01:37:49.217Z,18
2017-06-27T01:38:48.416Z,18
2017-06-27T01:39:47.863Z,18
2017-06-27T01:40:47.075Z,18
2017-06-27T01:41:46.165Z,18
2017-06-27T01:42:45.369Z,18
2017-06-27T01:43:44.458Z,18
2017-06-27T01:44:44.166Z,18
2017-06-27T01:45:43.499Z,18
2017-06-27T01:46:42.702Z,18
2017-06-27T01:47:13.097Z,18
2017-06-27T01:48:40.865Z,18
2017-06-27T01:49:39.936Z,17.9
2017-06-27T01:50:39.641Z,17.9
2017-06-27T01:51:39.087Z,17.9
2017-06-27T01:52:37.926Z,17.9
2017-06-27T01:54:36.513Z,17.9
2017-06-27T01:55:35.711Z,17.9
2017-06-27T01:56:34.919Z,17.8
2017-06-27T01:57:34.435Z,17.9
2017-06-27T01:58:33.517Z,17.9
2017-06-27T01:59:32.719Z,17.9
2017-06-27T02:00:32.497Z,17.8
2017-06-27T02:01:31.080Z,17.8
2017-06-27T02:02:30.917Z,17.8
2017-06-27T02:03:29.738Z,17.8
2017-06-27T02:04:28.930Z,17.8
2017-06-27T02:05:28.691Z,17.8
2017-06-27T02:06:27.378Z,17.8
2017-06-27T02:07:26.588Z,17.8
2017-06-27T02:08:25.789Z,17.8
2017-06-27T02:09:25.439Z,17.8
2017-06-27T02:09:55.449Z,17.8
2017-06-27T02:10:25.716Z,17.8
2017-06-27T02:11:23.967Z,17.8
2017-06-27T02:12:22.671Z,17.8
2017-06-27T02:13:21.868Z,17.8
2017-06-27T02:15:20.473Z,17.6
2017-06-27T02:16:19.672Z,17.6
2017-06-27T02:17:18.868Z,17.6
2017-06-27T02:18:18.059Z,17.6
2017-06-27T02:19:17.152Z,17.6
2017-06-27T02:20:16.854Z,17.6
2017-06-27T02:21:16.306Z,17.6
2017-06-27T02:22:15.016Z,17.6
2017-06-27T02:23:14.219Z,17.6
2017-06-27T02:24:13.428Z,17.6
2017-06-27T02:25:12.620Z,17.6
2017-06-27T02:26:11.815Z,17.6
2017-06-27T02:27:11.272Z,17.6
2017-06-27T02:28:10.469Z,17.4
2017-06-27T02:28:40.980Z,17.4
2017-06-27T02:30:08.910Z,17.3
2017-06-27T02:31:08.680Z,17.3
2017-06-27T02:32:07.383Z,17.3
2017-06-27T02:33:06.833Z,17.3
2017-06-27T02:34:05.924Z,17.2
2017-06-27T02:35:04.998Z,17.2
2017-06-27T02:36:04.080Z,17.3
2017-06-27T02:37:03.662Z,17.3
2017-06-27T02:38:02.758Z,17.3
2017-06-27T02:39:02.203Z,17.2
2017-06-27T02:40:01.406Z,17.2
2017-06-27T02:41:00.609Z,17.2
2017-06-27T02:41:59.811Z,17.2
2017-06-27T02:43:58.292Z,17.3
2017-06-27T02:44:57.758Z,17.3
2017-06-27T02:45:56.934Z,17.3
2017-06-27T02:46:55.919Z,17.3
2017-06-27T02:47:55.018Z,17.3
2017-06-27T02:48:54.130Z,17.3
2017-06-27T02:49:53.846Z,17.4
2017-06-27T02:50:53.310Z,17.4
2017-06-27T02:51:52.013Z,17.4
2017-06-27T02:52:51.234Z,17.3
2017-06-27T02:53:50.342Z,17.3
2017-06-27T02:54:49.938Z,17.3
2017-06-27T02:55:49.178Z,17.3
2017-06-27T02:56:48.650Z,17.3
2017-06-27T02:57:47.243Z,17.2
2017-06-27T02:58:46.463Z,17.1
2017-06-27T02:59:46.269Z,17.1
2017-06-27T03:00:44.883Z,17.2
2017-06-27T03:01:44.098Z,17.1
2017-06-27T03:02:44.080Z,17.1
2017-06-27T03:04:42.193Z,17.1
2017-06-27T03:05:41.407Z,17.1
2017-06-27T03:06:41.070Z,17.1
2017-06-27T03:07:39.774Z,17.1
2017-06-27T03:08:39.221Z,17.1
2017-06-27T03:09:38.316Z,17.1
2017-06-27T03:10:37.532Z,17.1
2017-06-27T03:11:36.739Z,17.1
2017-06-27T03:12:35.956Z,17.1
2017-06-27T03:13:35.164Z,17.1
2017-06-27T03:15:34.135Z,17.1
2017-06-27T03:16:32.723Z,17.1
2017-06-27T03:17:31.806Z,17
2017-06-27T03:18:31.023Z,17
2017-06-27T03:19:30.240Z,17
2017-06-27T03:20:29.462Z,17
2017-06-27T03:21:28.934Z,17
2017-06-27T03:22:28.154Z,17
2017-06-27T03:23:27.366Z,17.1
2017-06-27T03:24:26.586Z,17
2017-06-27T03:25:25.675Z,17
2017-06-27T03:26:24.884Z,17
2017-06-27T03:27:24.339Z,17
2017-06-27T03:28:23.546Z,17
2017-06-27T03:29:22.760Z,17
2017-06-27T03:30:21.739Z,16.9
2017-06-27T03:31:20.946Z,17
2017-06-27T03:32:20.142Z,17
2017-06-27T03:33:19.604Z,17
2017-06-27T03:34:18.808Z,17
2017-06-27T03:34:49.338Z,17
2017-06-27T03:35:19.862Z,16.9
2017-06-27T03:35:50.386Z,16.9
2017-06-27T03:37:16.163Z,16.9
2017-06-27T03:38:15.871Z,16.9
2017-06-27T03:39:15.330Z,16.9
2017-06-27T03:40:13.919Z,16.9
2017-06-27T03:41:13.125Z,16.8
2017-06-27T03:42:12.339Z,16.8
2017-06-27T03:43:11.555Z,16.8
2017-06-27T03:44:11.329Z,16.8
2017-06-27T03:45:10.315Z,16.8
2017-06-27T03:46:09.537Z,16.8
2017-06-27T03:47:08.787Z,16.8
2017-06-27T03:48:07.886Z,16.7
2017-06-27T03:49:07.102Z,16.7
2017-06-27T03:50:06.311Z,16.7
2017-06-27T03:51:05.782Z,16.7
2017-06-27T03:52:05.587Z,16.7
2017-06-27T03:53:03.799Z,16.8
2017-06-27T03:54:03.401Z,16.8
2017-06-27T03:55:02.487Z,16.8
2017-06-27T03:56:01.877Z,16.8
2017-06-27T03:58:00.233Z,16.8
2017-06-27T03:58:59.897Z,16.8
2017-06-27T03:59:58.610Z,16.8
2017-06-27T04:00:57.705Z,16.8
2017-06-27T04:01:56.924Z,16.8
2017-06-27T04:02:56.131Z,16.8
2017-06-27T04:03:55.118Z,16.8
2017-06-27T04:04:54.835Z,16.8
2017-06-27T04:05:54.041Z,16.8
2017-06-27T04:06:53.817Z,16.8
2017-06-27T04:07:52.288Z,16.7
2017-06-27T04:08:51.377Z,16.8
2017-06-27T04:09:51.235Z,16.7
2017-06-27T04:10:50.510Z,16.8
2017-06-27T04:11:49.216Z,16.8
2017-06-27T04:12:48.438Z,16.8
2017-06-27T04:14:47.032Z,16.8
2017-06-27T04:15:46.499Z,16.7
2017-06-27T04:16:45.230Z,16.7
2017-06-27T04:17:44.231Z,16.7
2017-06-27T04:18:43.713Z,16.7
2017-06-27T04:20:42.327Z,16.6
2017-06-27T04:21:41.549Z,16.6
2017-06-27T04:22:40.528Z,16.7
2017-06-27T04:23:40.002Z,16.7
2017-06-27T04:24:39.101Z,16.8
2017-06-27T04:25:38.578Z,16.8
2017-06-27T04:26:37.782Z,16.8
2017-06-27T04:27:37.672Z,16.7
2017-06-27T04:28:36.256Z,16.7
2017-06-27T04:29:35.508Z,16.8
2017-06-27T04:30:34.713Z,16.8
2017-06-27T04:31:33.925Z,16.8
2017-06-27T04:32:33.128Z,16.8
2017-06-27T04:33:32.605Z,16.7
2017-06-27T04:34:31.320Z,16.7
2017-06-27T04:35:30.525Z,16.6
2017-06-27T04:36:30.239Z,16.6
2017-06-27T04:37:29.334Z,16.6
2017-06-27T04:38:28.299Z,16.5
2017-06-27T04:39:27.771Z,16.5
2017-06-27T04:40:26.871Z,16.5
2017-06-27T04:41:25.970Z,16.5
2017-06-27T04:42:25.064Z,16.5
2017-06-27T04:43:24.777Z,16.5
2017-06-27T04:44:23.987Z,16.5
2017-06-27T04:46:22.347Z,16.5
2017-06-27T04:47:21.554Z,16.6
2017-06-27T04:48:20.643Z,16.6
2017-06-27T04:49:19.872Z,16.6
2017-06-27T04:50:19.155Z,16.6
2017-06-27T04:51:18.361Z,16.6
2017-06-27T04:52:18.463Z,16.6
2017-06-27T04:53:17.157Z,16.6
2017-06-27T04:54:16.417Z,16.6
2017-06-27T04:55:15.640Z,16.6
2017-06-27T04:56:14.849Z,16.6
2017-06-27T04:57:13.954Z,16.6
2017-06-27T04:58:13.414Z,16.6
2017-06-27T04:59:12.719Z,16.5
2017-06-27T05:00:11.617Z,16.5
2017-06-27T05:01:10.829Z,16.6
2017-06-27T05:02:10.036Z,16.6
2017-06-27T05:03:09.250Z,16.6
2017-06-27T05:04:08.590Z,16.6
2017-06-27T05:05:07.695Z,16.6
2017-06-27T05:06:06.781Z,16.7
2017-06-27T05:07:07.059Z,16.7
2017-06-27T05:08:05.276Z,16.7
2017-06-27T05:09:04.251Z,16.8
2017-06-27T05:10:03.985Z,16.8
2017-06-27T05:11:03.075Z,16.8
2017-06-27T05:12:02.047Z,16.8
2017-06-27T05:14:01.582Z,16.8
2017-06-27T05:15:00.179Z,16.8
2017-06-27T05:15:59.647Z,16.8
2017-06-27T05:16:59.332Z,16.8
2017-06-27T05:17:57.994Z,16.8
2017-06-27T05:18:57.205Z,16.8
2017-06-27T05:19:56.178Z,16.8
2017-06-27T05:20:55.397Z,16.8
2017-06-27T05:21:54.880Z,16.7
2017-06-27T05:22:54.084Z,16.7
2017-06-27T05:24:52.701Z,16.7
2017-06-27T05:25:51.799Z,16.7
2017-06-27T05:26:51.012Z,16.7
2017-06-27T05:27:50.416Z,16.7
2017-06-27T05:28:49.624Z,16.7
2017-06-27T05:29:48.720Z,16.8
2017-06-27T05:30:47.929Z,16.8
2017-06-27T05:31:47.029Z,16.8
2017-06-27T05:32:46.742Z,16.8
2017-06-27T05:33:46.202Z,16.8
2017-06-27T05:34:44.962Z,16.8
2017-06-27T05:35:44.072Z,16.8
2017-06-27T05:36:43.280Z,16.9
2017-06-27T05:37:42.019Z,16.9
2017-06-27T05:38:42.189Z,17
2017-06-27T05:39:41.645Z,17
2017-06-27T05:40:40.344Z,17
2017-06-27T05:41:39.453Z,17
2017-06-27T05:42:38.938Z,17
2017-06-27T05:43:38.158Z,17
2017-06-27T05:44:37.383Z,17
2017-06-27T05:45:36.852Z,17
2017-06-27T05:46:36.058Z,17
2017-06-27T05:47:35.260Z,17
2017-06-27T05:48:34.482Z,17
2017-06-27T05:49:33.578Z,17
2017-06-27T05:50:32.788Z,17
2017-06-27T05:51:32.263Z,17.1
2017-06-27T05:52:31.475Z,17.1
2017-06-27T05:53:30.674Z,17.1
2017-06-27T05:54:29.881Z,17.1
2017-06-27T05:55:29.099Z,17.1
2017-06-27T05:56:28.318Z,17.1
2017-06-27T05:57:27.777Z,17.1
2017-06-27T05:58:27.003Z,17.1
2017-06-27T05:59:26.223Z,17.1
2017-06-27T06:00:25.446Z,17.1
2017-06-27T06:01:24.654Z,17.1
2017-06-27T06:02:23.853Z,17.1
2017-06-27T06:03:23.195Z,17.1
2017-06-27T06:04:22.401Z,17
2017-06-27T06:05:21.620Z,17.1
2017-06-27T06:06:20.832Z,17
2017-06-27T06:07:20.100Z,17
2017-06-27T06:08:19.278Z,17
2017-06-27T06:09:19.131Z,17
2017-06-27T06:10:17.842Z,17
2017-06-27T06:11:16.929Z,17
2017-06-27T06:12:16.524Z,17
2017-06-27T06:13:15.255Z,17
2017-06-27T06:14:14.969Z,17
2017-06-27T06:15:14.510Z,17
2017-06-27T06:17:13.000Z,17
2017-06-27T06:18:12.629Z,17
2017-06-27T06:19:11.334Z,17.1
2017-06-27T06:20:10.309Z,17.1
2017-06-27T06:21:10.168Z,17.1
2017-06-27T06:22:08.757Z,17.1
2017-06-27T06:23:08.465Z,17.1
2017-06-27T06:24:07.566Z,17.1
2017-06-27T06:25:06.555Z,17.1
2017-06-27T06:26:06.268Z,17.1
2017-06-27T06:27:05.432Z,17.1
2017-06-27T06:28:04.515Z,17.1
2017-06-27T06:29:03.995Z,17.1
2017-06-27T06:30:03.086Z,17.1
2017-06-27T06:31:02.584Z,17.1
2017-06-27T06:32:02.394Z,17.2
2017-06-27T06:33:01.349Z,17.2
2017-06-27T06:33:31.395Z,17.2
2017-06-27T06:34:59.549Z,17.2
2017-06-27T06:35:58.643Z,17.2
2017-06-27T06:36:57.862Z,17.2
2017-06-27T06:37:57.575Z,17.2
2017-06-27T06:38:57.599Z,17.2
2017-06-27T06:39:56.384Z,17.2
2017-06-27T06:40:55.088Z,17.2
2017-06-27T06:41:54.304Z,17.2
2017-06-27T06:42:53.404Z,17.2
2017-06-27T06:43:53.000Z,17.2
2017-06-27T06:44:23.776Z,17.2
2017-06-27T06:45:51.552Z,17.2
2017-06-27T06:46:50.647Z,17.2
2017-06-27T06:47:50.364Z,17.2
2017-06-27T06:48:49.460Z,17.2
2017-06-27T06:49:48.318Z,17.3
2017-06-27T06:50:47.912Z,17.3
2017-06-27T06:51:47.387Z,17.3
2017-06-27T06:52:46.362Z,17.3
2017-06-27T06:53:45.584Z,17.3
2017-06-27T06:54:45.663Z,17.3
2017-06-27T06:55:44.529Z,17.3
2017-06-27T06:56:43.629Z,17.3
2017-06-27T06:57:42.845Z,17.3
2017-06-27T06:58:42.437Z,17.4
2017-06-27T06:59:41.488Z,17.4
2017-06-27T07:00:40.703Z,17.4
2017-06-27T07:01:40.812Z,17.4
2017-06-27T07:02:39.521Z,17.4
2017-06-27T07:03:38.615Z,17.4
2017-06-27T07:04:37.817Z,17.4
2017-06-27T07:05:37.615Z,17.4
2017-06-27T07:06:36.208Z,17.4
2017-06-27T07:07:36.062Z,17.5
2017-06-27T07:08:35.713Z,17.5
2017-06-27T07:09:34.353Z,17.5
2017-06-27T07:10:33.562Z,17.5
2017-06-27T07:11:33.337Z,17.5
2017-06-27T07:12:31.921Z,17.5
2017-06-27T07:13:31.898Z,17.5
2017-06-27T07:14:30.601Z,17.5
2017-06-27T07:15:29.814Z,17.5
2017-06-27T07:16:29.536Z,17.6
2017-06-27T07:17:28.627Z,17.6
2017-06-27T07:18:27.846Z,17.6
2017-06-27T07:19:27.707Z,17.6
2017-06-27T07:20:26.315Z,17.6
2017-06-27T07:21:26.033Z,17.6
2017-06-27T07:22:25.164Z,17.7
2017-06-27T07:23:24.389Z,17.7
2017-06-27T07:24:23.493Z,17.8
2017-06-27T07:25:23.289Z,17.8
2017-06-27T07:27:21.028Z,17.8
2017-06-27T07:28:20.513Z,17.8
2017-06-27T07:29:20.232Z,17.8
2017-06-27T07:30:19.446Z,17.8
2017-06-27T07:31:18.673Z,17.8
2017-06-27T07:33:17.287Z,17.8
2017-06-27T07:34:16.498Z,17.8
2017-06-27T07:35:16.808Z,17.8
2017-06-27T07:37:14.651Z,17.8
2017-06-27T07:38:13.762Z,17.8
2017-06-27T07:39:13.540Z,17.8
2017-06-27T07:40:12.241Z,17.8
2017-06-27T07:41:11.715Z,17.8
2017-06-27T07:42:10.793Z,17.8
2017-06-27T07:43:11.083Z,17.8
2017-06-27T07:44:10.375Z,17.8
2017-06-27T07:45:09.096Z,17.8
2017-06-27T07:46:08.895Z,17.8
2017-06-27T07:47:07.606Z,17.8
2017-06-27T07:48:06.821Z,17.9
2017-06-27T07:49:06.286Z,17.9
2017-06-27T07:50:05.381Z,17.9
2017-06-27T07:51:05.102Z,17.9
2017-06-27T07:52:04.196Z,18
2017-06-27T07:53:03.308Z,18
2017-06-27T07:53:33.818Z,18
2017-06-27T07:55:02.475Z,18
2017-06-27T07:56:01.576Z,18
2017-06-27T07:57:00.794Z,18
2017-06-27T07:58:00.000Z,18
2017-06-27T07:58:58.977Z,18
2017-06-27T07:59:58.688Z,18
2017-06-27T08:00:58.162Z,18.1
2017-06-27T08:01:57.939Z,18.1
2017-06-27T08:02:57.211Z,18.1
2017-06-27T08:03:55.914Z,18
2017-06-27T08:04:55.573Z,18.1
2017-06-27T08:05:54.679Z,18.1
2017-06-27T08:06:54.030Z,18
2017-06-27T08:07:53.231Z,18.1
2017-06-27T08:08:52.317Z,18.1
2017-06-27T08:09:52.033Z,18.1
2017-06-27T08:10:51.694Z,18.1
2017-06-27T08:11:50.408Z,18.1
2017-06-27T08:12:49.871Z,18.1
2017-06-27T08:13:49.078Z,18.1
2017-06-27T08:14:48.288Z,18.1
2017-06-27T08:15:47.999Z,18.1
2017-06-27T08:16:47.216Z,18.1
2017-06-27T08:17:46.436Z,18.1
2017-06-27T08:18:45.899Z,18.1
2017-06-27T08:19:44.989Z,18.1
2017-06-27T08:20:44.104Z,18.1
2017-06-27T08:21:43.712Z,18.1
2017-06-27T08:22:43.004Z,18.1
2017-06-27T08:23:42.110Z,18.1
2017-06-27T08:24:41.951Z,18.1
2017-06-27T08:25:41.163Z,18.1
2017-06-27T08:26:40.380Z,18.1
2017-06-27T08:27:39.595Z,18.2
2017-06-27T08:28:38.822Z,18.2
2017-06-27T08:29:38.345Z,18.2
2017-06-27T08:30:37.813Z,18.2
2017-06-27T08:31:37.023Z,18.2
2017-06-27T08:32:35.873Z,18.2
2017-06-27T08:33:35.235Z,18.1
2017-06-27T08:34:35.212Z,18.1
2017-06-27T08:35:34.298Z,18.1
2017-06-27T08:36:34.591Z,18.1
2017-06-27T08:37:32.683Z,18.1
2017-06-27T08:38:32.280Z,18.1
2017-06-27T08:39:31.497Z,18.2
2017-06-27T08:40:31.209Z,18.2
2017-06-27T08:41:30.988Z,18.2
2017-06-27T08:42:30.014Z,18.2
2017-06-27T08:43:29.233Z,18.2
2017-06-27T08:44:28.948Z,18.2
2017-06-27T08:45:27.667Z,18.2
2017-06-27T08:46:27.451Z,18.2
2017-06-27T08:46:57.475Z,18.2
2017-06-27T08:47:28.002Z,18.2
2017-06-27T08:48:25.704Z,18.2
2017-06-27T08:49:24.914Z,18.2
2017-06-27T08:50:24.134Z,18.2
2017-06-27T08:51:23.843Z,18.2
2017-06-27T08:52:23.057Z,18.2
2017-06-27T08:53:22.528Z,18.2
2017-06-27T08:54:22.179Z,18.2
2017-06-27T08:55:20.898Z,18.2
2017-06-27T08:56:20.104Z,18.2
2017-06-27T08:57:19.880Z,18.2
2017-06-27T08:58:19.043Z,18.2
2017-06-27T08:59:18.199Z,18.2
2017-06-27T09:00:17.913Z,18.2
2017-06-27T09:01:17.002Z,18.2
2017-06-27T09:02:16.214Z,18.2
2017-06-27T09:03:15.919Z,18.2
2017-06-27T09:04:15.144Z,18.2
2017-06-27T09:05:14.492Z,18.3
2017-06-27T09:06:13.476Z,18.3
2017-06-27T09:07:12.953Z,18.3
2017-06-27T09:08:12.155Z,18.3
2017-06-27T09:09:12.588Z,18.3
2017-06-27T09:10:11.179Z,18.3
2017-06-27T09:12:10.039Z,18.3
2017-06-27T09:14:08.015Z,18.3
2017-06-27T09:15:08.301Z,18.3
2017-06-27T09:16:06.902Z,18.3
2017-06-27T09:17:06.611Z,18.3
2017-06-27T09:18:06.075Z,18.3
2017-06-27T09:19:05.131Z,18.3
2017-06-27T09:20:04.342Z,18.3
2017-06-27T09:21:03.547Z,18.3
2017-06-27T09:22:03.279Z,18.3
2017-06-27T09:23:02.390Z,18.3
2017-06-27T09:24:01.857Z,18.3
2017-06-27T09:25:01.064Z,18.3
2017-06-27T09:26:00.166Z,18.3
2017-06-27T09:26:59.882Z,18.3
2017-06-27T09:27:58.994Z,18.3
2017-06-27T09:28:58.210Z,18.3
2017-06-27T09:29:58.069Z,18.3
2017-06-27T09:30:57.293Z,18.3
2017-06-27T09:31:56.507Z,18.3
2017-06-27T09:32:55.721Z,18.3
2017-06-27T09:33:54.926Z,18.3
2017-06-27T09:34:54.515Z,18.3
2017-06-27T09:35:53.979Z,18.3
2017-06-27T09:36:53.147Z,18.4
2017-06-27T09:37:52.129Z,18.4
2017-06-27T09:38:51.722Z,18.4
2017-06-27T09:39:51.194Z,18.4
2017-06-27T09:40:50.297Z,18.4
2017-06-27T09:41:50.149Z,18.4
2017-06-27T09:42:49.128Z,18.4
2017-06-27T09:43:48.330Z,18.4
2017-06-27T09:44:48.048Z,18.4
2017-06-27T09:45:47.142Z,18.4
2017-06-27T09:46:46.732Z,18.4
2017-06-27T09:47:46.207Z,18.4
2017-06-27T09:48:45.311Z,18.4
2017-06-27T09:49:44.531Z,18.4
2017-06-27T09:50:44.027Z,18.4
2017-06-27T09:51:43.130Z,18.4
2017-06-27T09:52:42.223Z,18.4
2017-06-27T09:53:42.189Z,18.4
2017-06-27T09:54:41.404Z,18.4
2017-06-27T09:55:40.494Z,18.4
2017-06-27T09:56:40.156Z,18.4
2017-06-27T09:57:39.361Z,18.5
2017-06-27T09:58:38.457Z,18.5
2017-06-27T09:59:38.425Z,18.5
2017-06-27T10:00:37.146Z,18.5
2017-06-27T10:01:36.861Z,18.5
2017-06-27T10:02:36.074Z,18.5
2017-06-27T10:03:35.156Z,18.5
2017-06-27T10:04:34.860Z,18.5
2017-06-27T10:05:34.086Z,18.5
2017-06-27T10:06:33.243Z,18.5
2017-06-27T10:07:32.441Z,18.5
2017-06-27T10:08:31.799Z,18.5
2017-06-27T10:09:31.529Z,18.5
2017-06-27T10:10:30.618Z,18.5
2017-06-27T10:11:30.084Z,18.5
2017-06-27T10:12:29.184Z,18.5
2017-06-27T10:13:28.899Z,18.5
2017-06-27T10:14:28.181Z,18.5
2017-06-27T10:14:58.690Z,18.5
2017-06-27T10:15:29.213Z,18.5
2017-06-27T10:15:59.740Z,18.5
2017-06-27T10:17:26.313Z,18.5
2017-06-27T10:18:25.402Z,18.5
2017-06-27T10:19:24.617Z,18.5
2017-06-27T10:20:24.325Z,18.5
2017-06-27T10:21:23.535Z,18.5
2017-06-27T10:22:22.761Z,18.5
2017-06-27T10:23:22.237Z,18.5
2017-06-27T10:24:21.454Z,18.5
2017-06-27T10:25:20.662Z,18.5
2017-06-27T10:26:20.381Z,18.5
2017-06-27T10:27:19.609Z,18.5
2017-06-27T10:28:18.815Z,18.6
2017-06-27T10:29:18.294Z,18.6
2017-06-27T10:31:16.901Z,18.6
2017-06-27T10:32:15.997Z,18.6
2017-06-27T10:33:15.588Z,18.6
2017-06-27T10:34:15.198Z,18.6
2017-06-27T10:35:14.673Z,18.6
2017-06-27T10:36:13.878Z,18.6
2017-06-27T10:37:13.115Z,18.6
2017-06-27T10:38:12.214Z,18.6
2017-06-27T10:39:11.930Z,18.6
2017-06-27T10:40:11.177Z,18.6
2017-06-27T10:41:10.649Z,18.6
2017-06-27T10:42:09.857Z,18.6
2017-06-27T10:43:09.062Z,18.7
2017-06-27T10:44:08.271Z,18.7
2017-06-27T10:45:07.884Z,18.7
2017-06-27T10:46:06.971Z,18.7
2017-06-27T10:47:06.932Z,18.7
2017-06-27T10:48:06.036Z,18.7
2017-06-27T10:50:04.705Z,18.8
2017-06-27T10:51:03.797Z,18.8
2017-06-27T10:52:03.511Z,18.8
2017-06-27T10:53:02.912Z,18.8
2017-06-27T10:54:01.890Z,18.8
2017-06-27T10:55:01.593Z,18.8
2017-06-27T10:55:31.995Z,18.8
2017-06-27T10:56:02.398Z,18.8
2017-06-27T10:56:32.802Z,18.8
2017-06-27T10:57:59.699Z,18.8
2017-06-27T10:58:59.167Z,18.9
2017-06-27T10:59:58.395Z,18.9
2017-06-27T11:00:57.644Z,18.9
2017-06-27T11:01:56.849Z,18.9
2017-06-27T11:02:55.958Z,18.9
2017-06-27T11:03:55.659Z,18.9
2017-06-27T11:04:55.132Z,18.9
2017-06-27T11:05:54.337Z,18.9
2017-06-27T11:06:53.438Z,18.9
2017-06-27T11:07:53.157Z,19
2017-06-27T11:08:52.254Z,19
2017-06-27T11:09:51.866Z,19
2017-06-27T11:10:51.374Z,19
2017-06-27T11:11:50.579Z,19
2017-06-27T11:12:49.798Z,19
2017-06-27T11:13:49.511Z,19
2017-06-27T11:14:48.521Z,19
2017-06-27T11:15:48.009Z,19
2017-06-27T11:17:46.873Z,19
2017-06-27T11:18:45.853Z,19
2017-06-27T11:19:45.786Z,19
2017-06-27T11:20:44.835Z,19
2017-06-27T11:21:44.555Z,19
2017-06-27T11:22:43.667Z,19
2017-06-27T11:23:43.135Z,19.1
2017-06-27T11:24:42.226Z,19.1
2017-06-27T11:25:41.945Z,19.1
2017-06-27T11:26:41.163Z,19.1
2017-06-27T11:27:11.574Z,19.1
2017-06-27T11:27:42.102Z,19.1
2017-06-27T11:28:39.808Z,19.1
2017-06-27T11:30:39.051Z,19.1
2017-06-27T11:31:38.189Z,19.1
2017-06-27T11:32:37.404Z,19.1
2017-06-27T11:33:37.006Z,19.2
2017-06-27T11:34:36.092Z,19.2
2017-06-27T11:35:35.685Z,19.2
2017-06-27T11:36:35.166Z,19.2
2017-06-27T11:37:34.140Z,19.2
2017-06-27T11:39:33.255Z,19.2
2017-06-27T11:40:32.342Z,19.2
2017-06-27T11:41:31.926Z,19.2
2017-06-27T11:42:31.391Z,19.3
2017-06-27T11:43:30.380Z,19.3
2017-06-27T11:44:30.099Z,19.3
2017-06-27T11:45:29.305Z,19.4
2017-06-27T11:46:28.557Z,19.3
2017-06-27T11:47:28.156Z,19.4
2017-06-27T11:48:27.640Z,19.4
2017-06-27T11:49:26.733Z,19.4
2017-06-27T11:50:26.448Z,19.4
2017-06-27T11:51:25.548Z,19.4
2017-06-27T11:52:24.909Z,19.5
2017-06-27T11:52:55.820Z,19.5
2017-06-27T11:54:23.981Z,19.5
2017-06-27T11:55:23.199Z,19.4
2017-06-27T11:56:22.807Z,19.5
2017-06-27T11:57:22.017Z,19.5
2017-06-27T11:58:21.628Z,19.5
2017-06-27T11:59:21.433Z,19.5
2017-06-27T12:00:20.446Z,19.5
2017-06-27T12:01:19.568Z,19.5
2017-06-27T12:02:19.311Z,19.5
2017-06-27T12:03:18.402Z,19.5
2017-06-27T12:04:17.980Z,19.5
2017-06-27T12:05:16.958Z,19.5
2017-06-27T12:06:16.931Z,19.5
2017-06-27T12:07:16.146Z,19.5
2017-06-27T12:08:15.109Z,19.6
2017-06-27T12:09:14.705Z,19.6
2017-06-27T12:10:14.428Z,19.6
2017-06-27T12:11:13.649Z,19.6
2017-06-27T12:12:13.115Z,19.6
2017-06-27T12:13:12.332Z,19.6
2017-06-27T12:14:12.054Z,19.6
2017-06-27T12:15:11.275Z,19.6
2017-06-27T12:16:10.490Z,19.6
2017-06-27T12:17:10.084Z,19.6
2017-06-27T12:18:09.487Z,19.6
2017-06-27T12:19:08.580Z,19.6
2017-06-27T12:20:08.296Z,19.6
2017-06-27T12:21:07.502Z,19.6
2017-06-27T12:22:07.225Z,19.6
2017-06-27T12:23:06.443Z,19.6
2017-06-27T12:24:06.559Z,19.6
2017-06-27T12:25:05.260Z,19.6
2017-06-27T12:26:04.373Z,19.7
2017-06-27T12:27:03.970Z,19.7
2017-06-27T12:28:03.688Z,19.7
2017-06-27T12:29:02.895Z,19.7
2017-06-27T12:30:02.247Z,19.7
2017-06-27T12:31:01.615Z,19.7
2017-06-27T12:32:01.217Z,19.7
2017-06-27T12:33:00.431Z,19.7
2017-06-27T12:34:00.138Z,19.7
2017-06-27T12:34:59.352Z,19.7
2017-06-27T12:35:58.809Z,19.7
2017-06-27T12:36:57.914Z,19.7
2017-06-27T12:37:57.620Z,19.7
2017-06-27T12:38:56.720Z,19.8
2017-06-27T12:39:56.524Z,19.7
2017-06-27T12:40:55.738Z,19.8
2017-06-27T12:41:55.579Z,19.8
2017-06-27T12:42:54.678Z,19.8
2017-06-27T12:43:53.897Z,19.8
2017-06-27T12:44:53.616Z,19.9
2017-06-27T12:45:52.833Z,19.9
2017-06-27T12:46:52.614Z,19.9
2017-06-27T12:48:51.242Z,19.9
2017-06-27T12:49:50.453Z,19.9
2017-06-27T12:50:49.669Z,19.9
2017-06-27T12:51:49.380Z,19.9
2017-06-27T12:52:48.598Z,20
2017-06-27T12:53:47.771Z,20
2017-06-27T12:54:47.758Z,20
2017-06-27T12:55:46.954Z,20
2017-06-27T12:56:46.161Z,20
2017-06-27T12:57:45.873Z,20
2017-06-27T12:58:45.091Z,20
2017-06-27T13:00:44.464Z,20
2017-06-27T13:01:43.687Z,20
2017-06-27T13:02:42.897Z,20
2017-06-27T13:03:42.108Z,20
2017-06-27T13:04:41.827Z,20
2017-06-27T13:05:12.352Z,20
2017-06-27T13:05:42.870Z,20
2017-06-27T13:06:40.466Z,20
2017-06-27T13:07:40.179Z,20
2017-06-27T13:08:39.392Z,20
2017-06-27T13:09:38.606Z,20
2017-06-27T13:10:38.326Z,20
2017-06-27T13:11:37.661Z,20
2017-06-27T13:12:36.895Z,20
2017-06-27T13:13:36.491Z,20
2017-06-27T13:14:35.700Z,20
2017-06-27T13:15:36.008Z,20
2017-06-27T13:16:34.712Z,20
2017-06-27T13:17:05.479Z,20
2017-06-27T13:17:35.442Z,20.1
2017-06-27T13:18:05.955Z,20.1
2017-06-27T13:19:32.723Z,20.1
2017-06-27T13:20:32.440Z,20.1
2017-06-27T13:21:31.656Z,20.1
2017-06-27T13:22:31.631Z,20.1
2017-06-27T13:23:30.734Z,20.1
2017-06-27T13:24:30.518Z,20.1
2017-06-27T13:25:29.731Z,20.1
2017-06-27T13:26:28.965Z,20.1
2017-06-27T13:27:28.054Z,20.1
2017-06-27T13:28:27.903Z,20.1
2017-06-27T13:29:27.006Z,20.1
2017-06-27T13:31:26.000Z,20.1
2017-06-27T13:32:25.222Z,20.2
2017-06-27T13:33:24.929Z,20.2
2017-06-27T13:34:24.388Z,20.2
2017-06-27T13:35:23.474Z,20.2